sensor_id;sensor_type;location;lat;lon;timestamp;P1;durP1;ratioP1;P2;durP2;ratioP2
39880;SDS011;25554;44.954;10.068;2022-09-09T00:07:51;20.13;;;16.33;;
39880;SDS011;25554;44.954;10.068;2022-09-09T00:10:25;20.13;;;17.55;;
39880;SDS011;25554;44.954;10.068;2022-09-09T00:15:52;24.73;;;18.85;;
39880;SDS011;25554;44.954;10.068;2022-09-09T00:18:31;28.63;;;20.73;;
39880;SDS011;25554;44.954;10.068;2022-09-09T00:21:16;29.77;;;20.13;;
39880;SDS011;25554;44.954;10.068;2022-09-09T00:23:45;25.75;;;18.52;;
39880;SDS011;25554;44.954;10.068;2022-09-09T00:29:38;26.73;;;20.35;;
39880;SDS011;25554;44.954;10.068;2022-09-09T00:31:43;27.70;;;19.88;;
39880;SDS011;25554;44.954;10.068;2022-09-09T00:34:13;28.00;;;20.60;;
39880;SDS011;25554;44.954;10.068;2022-09-09T00:36:44;24.85;;;20.25;;
39880;SDS011;25554;44.954;10.068;2022-09-09T00:47:53;28.10;;;23.73;;
39880;SDS011;25554;44.954;10.068;2022-09-09T00:50:30;28.38;;;24.00;;
39880;SDS011;25554;44.954;10.068;2022-09-09T00:56:12;32.10;;;24.52;;
39880;SDS011;25554;44.954;10.068;2022-09-09T00:58:46;31.77;;;23.63;;
39880;SDS011;25554;44.954;10.068;2022-09-09T01:01:25;30.20;;;24.10;;
39880;SDS011;25554;44.954;10.068;2022-09-09T01:03:52;28.45;;;22.58;;
39880;SDS011;25554;44.954;10.068;2022-09-09T01:11:22;26.23;;;20.85;;
39880;SDS011;25554;44.954;10.068;2022-09-09T01:14:05;24.85;;;20.95;;
39880;SDS011;25554;44.954;10.068;2022-09-09T01:16:58;27.67;;;21.70;;
39880;SDS011;25554;44.954;10.068;2022-09-09T01:22:20;27.17;;;21.30;;
39880;SDS011;25554;44.954;10.068;2022-09-09T01:28:00;25.83;;;21.58;;
39880;SDS011;25554;44.954;10.068;2022-09-09T01:30:37;32.60;;;21.92;;
39880;SDS011;25554;44.954;10.068;2022-09-09T01:33:10;28.52;;;21.52;;
39880;SDS011;25554;44.954;10.068;2022-09-09T01:38:27;24.45;;;20.50;;
39880;SDS011;25554;44.954;10.068;2022-09-09T01:40:55;28.17;;;21.85;;
39880;SDS011;25554;44.954;10.068;2022-09-09T01:43:28;27.95;;;21.70;;
39880;SDS011;25554;44.954;10.068;2022-09-09T01:45:56;27.40;;;22.33;;
39880;SDS011;25554;44.954;10.068;2022-09-09T01:48:26;24.20;;;21.17;;
39880;SDS011;25554;44.954;10.068;2022-09-09T01:51:02;25.00;;;21.33;;
39880;SDS011;25554;44.954;10.068;2022-09-09T01:53:32;25.75;;;20.88;;
39880;SDS011;25554;44.954;10.068;2022-09-09T02:02:17;22.05;;;19.38;;
39880;SDS011;25554;44.954;10.068;2022-09-09T02:08:16;24.98;;;20.63;;
39880;SDS011;25554;44.954;10.068;2022-09-09T02:10:57;26.45;;;21.70;;
39880;SDS011;25554;44.954;10.068;2022-09-09T02:13:48;25.02;;;20.95;;
39880;SDS011;25554;44.954;10.068;2022-09-09T02:21:53;26.35;;;23.23;;
39880;SDS011;25554;44.954;10.068;2022-09-09T02:24:22;29.08;;;24.88;;
39880;SDS011;25554;44.954;10.068;2022-09-09T02:26:58;29.40;;;23.92;;
39880;SDS011;25554;44.954;10.068;2022-09-09T02:29:27;32.45;;;25.90;;
39880;SDS011;25554;44.954;10.068;2022-09-09T02:32:22;22.02;;;19.20;;
39880;SDS011;25554;44.954;10.068;2022-09-09T02:34:55;26.08;;;20.85;;
39880;SDS011;25554;44.954;10.068;2022-09-09T02:37:29;29.40;;;22.90;;
39880;SDS011;25554;44.954;10.068;2022-09-09T02:40:02;39.75;;;24.42;;
39880;SDS011;25554;44.954;10.068;2022-09-09T02:42:38;30.20;;;23.40;;
39880;SDS011;25554;44.954;10.068;2022-09-09T02:45:09;28.25;;;24.40;;
39880;SDS011;25554;44.954;10.068;2022-09-09T02:47:39;27.50;;;24.10;;
39880;SDS011;25554;44.954;10.068;2022-09-09T02:50:32;33.58;;;26.50;;
39880;SDS011;25554;44.954;10.068;2022-09-09T02:56:05;31.67;;;25.23;;
39880;SDS011;25554;44.954;10.068;2022-09-09T02:58:42;29.00;;;25.77;;
39880;SDS011;25554;44.954;10.068;2022-09-09T03:01:08;36.28;;;27.00;;
39880;SDS011;25554;44.954;10.068;2022-09-09T03:03:38;38.22;;;28.58;;
39880;SDS011;25554;44.954;10.068;2022-09-09T03:06:10;38.83;;;29.45;;
39880;SDS011;25554;44.954;10.068;2022-09-09T03:08:38;41.08;;;28.67;;
39880;SDS011;25554;44.954;10.068;2022-09-09T03:13:34;34.00;;;28.17;;
39880;SDS011;25554;44.954;10.068;2022-09-09T03:16:01;35.17;;;27.48;;
39880;SDS011;25554;44.954;10.068;2022-09-09T03:18:33;35.85;;;28.80;;
39880;SDS011;25554;44.954;10.068;2022-09-09T03:23:28;37.15;;;26.83;;
39880;SDS011;25554;44.954;10.068;2022-09-09T03:25:56;31.48;;;26.20;;
39880;SDS011;25554;44.954;10.068;2022-09-09T03:28:33;32.40;;;27.10;;
39880;SDS011;25554;44.954;10.068;2022-09-09T03:31:02;31.38;;;26.80;;
39880;SDS011;25554;44.954;10.068;2022-09-09T03:33:36;33.22;;;27.08;;
39880;SDS011;25554;44.954;10.068;2022-09-09T03:36:05;29.55;;;26.00;;
39880;SDS011;25554;44.954;10.068;2022-09-09T03:38:33;34.42;;;26.85;;
39880;SDS011;25554;44.954;10.068;2022-09-09T03:41:00;32.42;;;25.42;;
39880;SDS011;25554;44.954;10.068;2022-09-09T03:43:28;35.67;;;27.85;;
39880;SDS011;25554;44.954;10.068;2022-09-09T03:45:56;35.47;;;28.70;;
39880;SDS011;25554;44.954;10.068;2022-09-09T03:48:26;34.78;;;27.38;;
39880;SDS011;25554;44.954;10.068;2022-09-09T03:50:54;33.88;;;27.63;;
39880;SDS011;25554;44.954;10.068;2022-09-09T03:53:24;40.90;;;28.88;;
39880;SDS011;25554;44.954;10.068;2022-09-09T03:55:52;34.95;;;27.70;;
39880;SDS011;25554;44.954;10.068;2022-09-09T03:58:22;32.63;;;26.83;;
39880;SDS011;25554;44.954;10.068;2022-09-09T04:00:58;37.13;;;31.55;;
39880;SDS011;25554;44.954;10.068;2022-09-09T04:03:27;37.88;;;28.95;;
39880;SDS011;25554;44.954;10.068;2022-09-09T04:05:55;34.80;;;28.67;;
39880;SDS011;25554;44.954;10.068;2022-09-09T04:08:25;34.20;;;28.90;;
39880;SDS011;25554;44.954;10.068;2022-09-09T04:10:53;42.45;;;29.55;;
39880;SDS011;25554;44.954;10.068;2022-09-09T04:13:24;40.10;;;29.63;;
39880;SDS011;25554;44.954;10.068;2022-09-09T04:15:56;40.30;;;30.08;;
39880;SDS011;25554;44.954;10.068;2022-09-09T04:18:24;36.22;;;30.00;;
39880;SDS011;25554;44.954;10.068;2022-09-09T04:20:52;39.58;;;29.55;;
39880;SDS011;25554;44.954;10.068;2022-09-09T04:23:21;37.80;;;29.17;;
39880;SDS011;25554;44.954;10.068;2022-09-09T04:25:50;34.42;;;28.58;;
39880;SDS011;25554;44.954;10.068;2022-09-09T04:28:19;36.50;;;27.60;;
39880;SDS011;25554;44.954;10.068;2022-09-09T04:30:47;32.95;;;27.98;;
39880;SDS011;25554;44.954;10.068;2022-09-09T04:33:14;34.10;;;28.90;;
39880;SDS011;25554;44.954;10.068;2022-09-09T04:35:46;33.95;;;28.35;;
39880;SDS011;25554;44.954;10.068;2022-09-09T04:38:17;33.72;;;26.23;;
39880;SDS011;25554;44.954;10.068;2022-09-09T04:40:48;35.47;;;28.42;;
39880;SDS011;25554;44.954;10.068;2022-09-09T04:43:17;38.05;;;29.30;;
39880;SDS011;25554;44.954;10.068;2022-09-09T04:45:49;31.73;;;26.70;;
39880;SDS011;25554;44.954;10.068;2022-09-09T04:48:19;32.80;;;25.05;;
39880;SDS011;25554;44.954;10.068;2022-09-09T04:51:22;34.50;;;25.10;;
39880;SDS011;25554;44.954;10.068;2022-09-09T04:53:43;35.42;;;25.70;;
39880;SDS011;25554;44.954;10.068;2022-09-09T04:56:13;35.60;;;24.83;;
39880;SDS011;25554;44.954;10.068;2022-09-09T04:58:49;38.03;;;25.77;;
39880;SDS011;25554;44.954;10.068;2022-09-09T05:01:18;28.00;;;23.10;;
39880;SDS011;25554;44.954;10.068;2022-09-09T05:03:48;29.58;;;24.33;;
39880;SDS011;25554;44.954;10.068;2022-09-09T05:06:19;28.17;;;22.40;;
39880;SDS011;25554;44.954;10.068;2022-09-09T05:08:49;29.38;;;22.90;;
39880;SDS011;25554;44.954;10.068;2022-09-09T05:11:21;30.92;;;21.65;;
39880;SDS011;25554;44.954;10.068;2022-09-09T05:13:52;34.15;;;23.08;;
39880;SDS011;25554;44.954;10.068;2022-09-09T05:16:19;25.38;;;20.00;;
39880;SDS011;25554;44.954;10.068;2022-09-09T05:18:50;25.58;;;19.70;;
39880;SDS011;25554;44.954;10.068;2022-09-09T05:21:18;33.28;;;19.30;;
39880;SDS011;25554;44.954;10.068;2022-09-09T05:23:50;27.00;;;17.45;;
39880;SDS011;25554;44.954;10.068;2022-09-09T05:26:19;20.13;;;17.40;;
39880;SDS011;25554;44.954;10.068;2022-09-09T05:28:49;22.00;;;17.20;;
39880;SDS011;25554;44.954;10.068;2022-09-09T05:31:16;22.92;;;18.77;;
39880;SDS011;25554;44.954;10.068;2022-09-09T05:33:45;21.25;;;17.88;;
39880;SDS011;25554;44.954;10.068;2022-09-09T05:36:16;23.17;;;17.65;;
39880;SDS011;25554;44.954;10.068;2022-09-09T05:38:45;23.63;;;19.05;;
39880;SDS011;25554;44.954;10.068;2022-09-09T05:41:13;24.55;;;19.45;;
39880;SDS011;25554;44.954;10.068;2022-09-09T05:43:44;23.77;;;18.30;;
39880;SDS011;25554;44.954;10.068;2022-09-09T05:48:41;26.42;;;19.60;;
39880;SDS011;25554;44.954;10.068;2022-09-09T05:51:10;24.65;;;17.80;;
39880;SDS011;25554;44.954;10.068;2022-09-09T05:53:39;28.13;;;20.80;;
39880;SDS011;25554;44.954;10.068;2022-09-09T05:58:37;29.23;;;20.65;;
39880;SDS011;25554;44.954;10.068;2022-09-09T06:01:08;27.70;;;21.02;;
39880;SDS011;25554;44.954;10.068;2022-09-09T06:03:49;28.50;;;21.33;;
39880;SDS011;25554;44.954;10.068;2022-09-09T06:06:22;25.05;;;19.95;;
39880;SDS011;25554;44.954;10.068;2022-09-09T06:08:59;28.88;;;19.38;;
39880;SDS011;25554;44.954;10.068;2022-09-09T06:11:32;40.03;;;20.42;;
39880;SDS011;25554;44.954;10.068;2022-09-09T06:14:02;21.33;;;19.05;;
39880;SDS011;25554;44.954;10.068;2022-09-09T06:16:31;26.88;;;20.10;;
39880;SDS011;25554;44.954;10.068;2022-09-09T06:18:58;29.50;;;20.08;;
39880;SDS011;25554;44.954;10.068;2022-09-09T06:21:28;24.02;;;19.27;;
39880;SDS011;25554;44.954;10.068;2022-09-09T06:23:56;24.73;;;20.65;;
39880;SDS011;25554;44.954;10.068;2022-09-09T06:26:24;22.45;;;19.25;;
39880;SDS011;25554;44.954;10.068;2022-09-09T06:31:28;26.42;;;21.67;;
39880;SDS011;25554;44.954;10.068;2022-09-09T06:33:58;24.92;;;22.20;;
39880;SDS011;25554;44.954;10.068;2022-09-09T06:36:26;23.48;;;20.92;;
39880;SDS011;25554;44.954;10.068;2022-09-09T06:38:54;27.77;;;20.35;;
39880;SDS011;25554;44.954;10.068;2022-09-09T06:41:22;23.27;;;18.83;;
39880;SDS011;25554;44.954;10.068;2022-09-09T06:43:51;24.55;;;19.70;;
39880;SDS011;25554;44.954;10.068;2022-09-09T06:46:24;24.13;;;19.67;;
39880;SDS011;25554;44.954;10.068;2022-09-09T06:48:56;23.45;;;19.15;;
39880;SDS011;25554;44.954;10.068;2022-09-09T06:51:26;26.42;;;20.48;;
39880;SDS011;25554;44.954;10.068;2022-09-09T06:53:55;26.52;;;21.02;;
39880;SDS011;25554;44.954;10.068;2022-09-09T06:56:25;27.40;;;20.65;;
39880;SDS011;25554;44.954;10.068;2022-09-09T06:58:56;22.85;;;17.90;;
39880;SDS011;25554;44.954;10.068;2022-09-09T07:01:28;24.95;;;19.13;;
39880;SDS011;25554;44.954;10.068;2022-09-09T07:04:00;30.25;;;21.70;;
39880;SDS011;25554;44.954;10.068;2022-09-09T07:06:29;26.73;;;19.95;;
39880;SDS011;25554;44.954;10.068;2022-09-09T07:08:59;34.97;;;21.38;;
39880;SDS011;25554;44.954;10.068;2022-09-09T07:11:29;36.10;;;21.35;;
39880;SDS011;25554;44.954;10.068;2022-09-09T07:13:58;31.23;;;20.70;;
39880;SDS011;25554;44.954;10.068;2022-09-09T07:16:25;37.08;;;22.48;;
39880;SDS011;25554;44.954;10.068;2022-09-09T07:18:55;39.20;;;21.85;;
39880;SDS011;25554;44.954;10.068;2022-09-09T07:21:27;32.10;;;21.90;;
39880;SDS011;25554;44.954;10.068;2022-09-09T07:23:55;41.75;;;21.13;;
39880;SDS011;25554;44.954;10.068;2022-09-09T07:26:26;26.80;;;19.23;;
39880;SDS011;25554;44.954;10.068;2022-09-09T07:28:55;28.90;;;17.95;;
39880;SDS011;25554;44.954;10.068;2022-09-09T07:31:25;29.25;;;18.73;;
39880;SDS011;25554;44.954;10.068;2022-09-09T07:33:54;27.58;;;18.65;;
39880;SDS011;25554;44.954;10.068;2022-09-09T07:36:21;24.48;;;16.58;;
39880;SDS011;25554;44.954;10.068;2022-09-09T07:38:50;26.80;;;18.25;;
39880;SDS011;25554;44.954;10.068;2022-09-09T07:41:22;31.05;;;17.85;;
39880;SDS011;25554;44.954;10.068;2022-09-09T07:43:51;27.88;;;16.83;;
39880;SDS011;25554;44.954;10.068;2022-09-09T07:46:23;29.73;;;19.35;;
39880;SDS011;25554;44.954;10.068;2022-09-09T07:48:55;27.98;;;18.90;;
39880;SDS011;25554;44.954;10.068;2022-09-09T07:51:27;28.90;;;19.45;;
39880;SDS011;25554;44.954;10.068;2022-09-09T07:54:00;28.02;;;17.58;;
39880;SDS011;25554;44.954;10.068;2022-09-09T07:56:30;29.17;;;17.63;;
39880;SDS011;25554;44.954;10.068;2022-09-09T07:58:58;28.48;;;18.42;;
39880;SDS011;25554;44.954;10.068;2022-09-09T08:01:27;38.22;;;20.80;;
39880;SDS011;25554;44.954;10.068;2022-09-09T08:06:31;29.30;;;19.75;;
39880;SDS011;25554;44.954;10.068;2022-09-09T08:08:59;32.17;;;20.48;;
39880;SDS011;25554;44.954;10.068;2022-09-09T08:11:27;32.15;;;21.05;;
39880;SDS011;25554;44.954;10.068;2022-09-09T08:13:56;33.67;;;21.50;;
39880;SDS011;25554;44.954;10.068;2022-09-09T08:16:23;30.92;;;20.13;;
39880;SDS011;25554;44.954;10.068;2022-09-09T08:18:53;34.53;;;21.58;;
39880;SDS011;25554;44.954;10.068;2022-09-09T08:21:29;39.97;;;22.90;;
39880;SDS011;25554;44.954;10.068;2022-09-09T08:23:59;34.28;;;22.08;;
39880;SDS011;25554;44.954;10.068;2022-09-09T08:26:34;38.13;;;21.13;;
39880;SDS011;25554;44.954;10.068;2022-09-09T08:29:04;35.85;;;22.70;;
39880;SDS011;25554;44.954;10.068;2022-09-09T08:31:33;37.10;;;24.35;;
39880;SDS011;25554;44.954;10.068;2022-09-09T08:34:04;39.88;;;23.60;;
39880;SDS011;25554;44.954;10.068;2022-09-09T08:36:40;34.55;;;22.65;;
39880;SDS011;25554;44.954;10.068;2022-09-09T08:39:10;35.13;;;23.83;;
39880;SDS011;25554;44.954;10.068;2022-09-09T08:50:25;34.92;;;20.80;;
39880;SDS011;25554;44.954;10.068;2022-09-09T08:53:11;31.20;;;20.42;;
39880;SDS011;25554;44.954;10.068;2022-09-09T08:58:28;32.67;;;21.10;;
39880;SDS011;25554;44.954;10.068;2022-09-09T09:11:24;35.40;;;23.42;;
39880;SDS011;25554;44.954;10.068;2022-09-09T09:13:56;38.88;;;25.85;;
39880;SDS011;25554;44.954;10.068;2022-09-09T09:16:31;36.70;;;25.08;;
39880;SDS011;25554;44.954;10.068;2022-09-09T09:19:03;35.97;;;22.55;;
39880;SDS011;25554;44.954;10.068;2022-09-09T09:21:47;33.35;;;22.85;;
39880;SDS011;25554;44.954;10.068;2022-09-09T09:24:27;34.42;;;22.48;;
39880;SDS011;25554;44.954;10.068;2022-09-09T09:27:31;32.75;;;21.48;;
39880;SDS011;25554;44.954;10.068;2022-09-09T09:30:14;30.92;;;20.35;;
39880;SDS011;25554;44.954;10.068;2022-09-09T09:32:49;28.05;;;20.23;;
39880;SDS011;25554;44.954;10.068;2022-09-09T09:35:20;30.48;;;21.63;;
39880;SDS011;25554;44.954;10.068;2022-09-09T09:42:55;30.25;;;19.17;;
39880;SDS011;25554;44.954;10.068;2022-09-09T09:45:32;27.55;;;19.80;;
39880;SDS011;25554;44.954;10.068;2022-09-09T09:48:12;28.15;;;18.20;;
39880;SDS011;25554;44.954;10.068;2022-09-09T09:50:46;17.35;;;11.10;;
39880;SDS011;25554;44.954;10.068;2022-09-09T09:53:22;5.70;;;4.10;;
39880;SDS011;25554;44.954;10.068;2022-09-09T09:56:01;8.52;;;4.40;;
39880;SDS011;25554;44.954;10.068;2022-09-09T09:58:32;9.75;;;5.70;;
39880;SDS011;25554;44.954;10.068;2022-09-09T10:01:05;6.97;;;5.75;;
39880;SDS011;25554;44.954;10.068;2022-09-09T10:03:50;14.38;;;8.70;;
39880;SDS011;25554;44.954;10.068;2022-09-09T10:06:39;10.95;;;7.78;;
39880;SDS011;25554;44.954;10.068;2022-09-09T10:14:30;7.07;;;5.22;;
39880;SDS011;25554;44.954;10.068;2022-09-09T10:17:21;4.07;;;3.35;;
39880;SDS011;25554;44.954;10.068;2022-09-09T10:32:21;8.05;;;4.95;;
39880;SDS011;25554;44.954;10.068;2022-09-09T10:35:04;10.40;;;6.05;;
39880;SDS011;25554;44.954;10.068;2022-09-09T10:46:15;9.98;;;6.40;;
39880;SDS011;25554;44.954;10.068;2022-09-09T10:49:18;8.95;;;6.28;;
39880;SDS011;25554;44.954;10.068;2022-09-09T10:57:48;11.93;;;4.85;;
39880;SDS011;25554;44.954;10.068;2022-09-09T10:59:58;7.43;;;5.80;;
39880;SDS011;25554;44.954;10.068;2022-09-09T11:02:31;6.95;;;5.38;;
39880;SDS011;25554;44.954;10.068;2022-09-09T11:08:00;7.07;;;5.97;;
39880;SDS011;25554;44.954;10.068;2022-09-09T11:10:36;8.23;;;5.67;;
39880;SDS011;25554;44.954;10.068;2022-09-09T11:13:13;8.80;;;6.18;;
39880;SDS011;25554;44.954;10.068;2022-09-09T11:16:50;13.23;;;7.32;;
39880;SDS011;25554;44.954;10.068;2022-09-09T11:19:09;8.07;;;6.03;;
39880;SDS011;25554;44.954;10.068;2022-09-09T11:21:38;9.95;;;5.82;;
39880;SDS011;25554;44.954;10.068;2022-09-09T11:32:47;8.77;;;4.82;;
39880;SDS011;25554;44.954;10.068;2022-09-09T11:42:45;8.07;;;6.10;;
39880;SDS011;25554;44.954;10.068;2022-09-09T11:47:52;9.68;;;5.20;;
39880;SDS011;25554;44.954;10.068;2022-09-09T11:55:31;6.20;;;4.70;;
39880;SDS011;25554;44.954;10.068;2022-09-09T11:57:59;5.95;;;4.50;;
39880;SDS011;25554;44.954;10.068;2022-09-09T12:00:37;7.32;;;5.00;;
39880;SDS011;25554;44.954;10.068;2022-09-09T12:08:52;6.90;;;3.80;;
39880;SDS011;25554;44.954;10.068;2022-09-09T12:11:26;7.10;;;4.50;;
39880;SDS011;25554;44.954;10.068;2022-09-09T12:13:55;7.28;;;3.92;;
39880;SDS011;25554;44.954;10.068;2022-09-09T12:19:05;7.43;;;4.78;;
39880;SDS011;25554;44.954;10.068;2022-09-09T12:21:47;7.32;;;3.30;;
39880;SDS011;25554;44.954;10.068;2022-09-09T12:24:24;8.23;;;3.20;;
39880;SDS011;25554;44.954;10.068;2022-09-09T12:29:58;7.10;;;3.83;;
39880;SDS011;25554;44.954;10.068;2022-09-09T12:32:30;6.10;;;4.70;;
39880;SDS011;25554;44.954;10.068;2022-09-09T12:35:00;5.72;;;3.50;;
39880;SDS011;25554;44.954;10.068;2022-09-09T12:37:34;6.90;;;3.93;;
39880;SDS011;25554;44.954;10.068;2022-09-09T12:42:32;5.47;;;3.25;;
39880;SDS011;25554;44.954;10.068;2022-09-09T12:45:02;5.80;;;2.80;;
39880;SDS011;25554;44.954;10.068;2022-09-09T12:47:46;4.53;;;3.38;;
39880;SDS011;25554;44.954;10.068;2022-09-09T12:50:23;6.95;;;3.80;;
39880;SDS011;25554;44.954;10.068;2022-09-09T12:52:52;6.70;;;3.38;;
39880;SDS011;25554;44.954;10.068;2022-09-09T12:55:27;7.25;;;3.40;;
39880;SDS011;25554;44.954;10.068;2022-09-09T12:57:56;9.20;;;3.60;;
39880;SDS011;25554;44.954;10.068;2022-09-09T13:00:24;4.10;;;2.90;;
39880;SDS011;25554;44.954;10.068;2022-09-09T13:02:53;3.80;;;3.08;;
39880;SDS011;25554;44.954;10.068;2022-09-09T13:05:23;4.63;;;3.00;;
39880;SDS011;25554;44.954;10.068;2022-09-09T13:07:49;6.75;;;2.95;;
39880;SDS011;25554;44.954;10.068;2022-09-09T13:10:24;5.35;;;2.83;;
39880;SDS011;25554;44.954;10.068;2022-09-09T13:12:53;4.07;;;2.35;;
39880;SDS011;25554;44.954;10.068;2022-09-09T13:15:21;31.45;;;18.83;;
39880;SDS011;25554;44.954;10.068;2022-09-09T13:17:50;7.32;;;3.33;;
39880;SDS011;25554;44.954;10.068;2022-09-09T13:20:19;5.95;;;2.55;;
39880;SDS011;25554;44.954;10.068;2022-09-09T13:22:47;7.50;;;2.47;;
39880;SDS011;25554;44.954;10.068;2022-09-09T13:25:20;6.65;;;2.60;;
39880;SDS011;25554;44.954;10.068;2022-09-09T13:27:54;5.10;;;2.47;;
39880;SDS011;25554;44.954;10.068;2022-09-09T13:30:34;6.63;;;3.67;;
39880;SDS011;25554;44.954;10.068;2022-09-09T13:33:17;5.05;;;2.80;;
39880;SDS011;25554;44.954;10.068;2022-09-09T13:38:17;4.43;;;2.60;;
39880;SDS011;25554;44.954;10.068;2022-09-09T13:43:36;5.40;;;3.03;;
39880;SDS011;25554;44.954;10.068;2022-09-09T13:54:11;7.80;;;2.88;;
39880;SDS011;25554;44.954;10.068;2022-09-09T13:56:40;4.65;;;2.17;;
39880;SDS011;25554;44.954;10.068;2022-09-09T13:59:15;6.78;;;2.40;;
39880;SDS011;25554;44.954;10.068;2022-09-09T14:01:45;3.92;;;2.60;;
39880;SDS011;25554;44.954;10.068;2022-09-09T14:04:12;4.82;;;3.03;;
39880;SDS011;25554;44.954;10.068;2022-09-09T14:06:39;5.63;;;2.95;;
39880;SDS011;25554;44.954;10.068;2022-09-09T14:09:06;4.15;;;2.55;;
39880;SDS011;25554;44.954;10.068;2022-09-09T14:11:36;5.60;;;3.13;;
39880;SDS011;25554;44.954;10.068;2022-09-09T14:14:02;5.72;;;3.42;;
39880;SDS011;25554;44.954;10.068;2022-09-09T14:16:29;5.22;;;2.95;;
39880;SDS011;25554;44.954;10.068;2022-09-09T14:18:55;6.43;;;3.15;;
39880;SDS011;25554;44.954;10.068;2022-09-09T14:21:23;6.40;;;4.15;;
39880;SDS011;25554;44.954;10.068;2022-09-09T14:23:49;4.70;;;3.20;;
39880;SDS011;25554;44.954;10.068;2022-09-09T14:26:16;6.05;;;3.30;;
39880;SDS011;25554;44.954;10.068;2022-09-09T14:28:44;8.20;;;3.65;;
39880;SDS011;25554;44.954;10.068;2022-09-09T14:31:11;5.85;;;3.88;;
39880;SDS011;25554;44.954;10.068;2022-09-09T14:33:39;5.10;;;2.92;;
39880;SDS011;25554;44.954;10.068;2022-09-09T14:36:06;6.68;;;3.63;;
39880;SDS011;25554;44.954;10.068;2022-09-09T14:38:33;7.70;;;4.35;;
39880;SDS011;25554;44.954;10.068;2022-09-09T14:41:05;11.25;;;4.25;;
39880;SDS011;25554;44.954;10.068;2022-09-09T14:43:32;5.18;;;3.45;;
39880;SDS011;25554;44.954;10.068;2022-09-09T14:46:05;7.95;;;3.60;;
39880;SDS011;25554;44.954;10.068;2022-09-09T14:48:33;9.02;;;3.60;;
39880;SDS011;25554;44.954;10.068;2022-09-09T14:51:07;5.47;;;3.22;;
39880;SDS011;25554;44.954;10.068;2022-09-09T14:53:41;7.55;;;3.80;;
39880;SDS011;25554;44.954;10.068;2022-09-09T14:56:10;6.32;;;3.17;;
39880;SDS011;25554;44.954;10.068;2022-09-09T14:58:37;7.63;;;3.92;;
39880;SDS011;25554;44.954;10.068;2022-09-09T15:01:04;6.53;;;3.58;;
39880;SDS011;25554;44.954;10.068;2022-09-09T15:03:32;5.03;;;3.92;;
39880;SDS011;25554;44.954;10.068;2022-09-09T15:06:04;7.90;;;3.70;;
39880;SDS011;25554;44.954;10.068;2022-09-09T15:08:38;4.65;;;2.80;;
39880;SDS011;25554;44.954;10.068;2022-09-09T15:11:06;3.78;;;3.28;;
39880;SDS011;25554;44.954;10.068;2022-09-09T15:13:33;7.13;;;4.43;;
39880;SDS011;25554;44.954;10.068;2022-09-09T15:16:03;9.73;;;3.90;;
39880;SDS011;25554;44.954;10.068;2022-09-09T15:18:31;4.20;;;3.00;;
39880;SDS011;25554;44.954;10.068;2022-09-09T15:20:59;6.57;;;3.90;;
39880;SDS011;25554;44.954;10.068;2022-09-09T15:23:30;7.00;;;4.07;;
39880;SDS011;25554;44.954;10.068;2022-09-09T15:25:57;7.43;;;3.53;;
39880;SDS011;25554;44.954;10.068;2022-09-09T15:28:24;7.18;;;3.75;;
39880;SDS011;25554;44.954;10.068;2022-09-09T15:30:51;7.15;;;3.05;;
39880;SDS011;25554;44.954;10.068;2022-09-09T15:33:19;4.78;;;3.17;;
39880;SDS011;25554;44.954;10.068;2022-09-09T15:35:46;11.85;;;4.75;;
39880;SDS011;25554;44.954;10.068;2022-09-09T15:38:13;10.75;;;3.60;;
39880;SDS011;25554;44.954;10.068;2022-09-09T15:40:40;7.60;;;3.42;;
39880;SDS011;25554;44.954;10.068;2022-09-09T15:43:07;7.20;;;3.78;;
39880;SDS011;25554;44.954;10.068;2022-09-09T15:45:35;7.65;;;3.10;;
39880;SDS011;25554;44.954;10.068;2022-09-09T15:48:02;8.32;;;3.08;;
39880;SDS011;25554;44.954;10.068;2022-09-09T15:50:29;4.60;;;2.80;;
39880;SDS011;25554;44.954;10.068;2022-09-09T15:52:58;7.43;;;3.28;;
39880;SDS011;25554;44.954;10.068;2022-09-09T15:55:25;4.32;;;3.20;;
39880;SDS011;25554;44.954;10.068;2022-09-09T15:57:51;4.40;;;2.70;;
39880;SDS011;25554;44.954;10.068;2022-09-09T16:00:19;9.45;;;3.78;;
39880;SDS011;25554;44.954;10.068;2022-09-09T16:02:48;5.20;;;3.17;;
39880;SDS011;25554;44.954;10.068;2022-09-09T16:05:15;5.88;;;2.70;;
39880;SDS011;25554;44.954;10.068;2022-09-09T16:07:41;7.28;;;3.95;;
39880;SDS011;25554;44.954;10.068;2022-09-09T16:10:09;8.07;;;3.08;;
39880;SDS011;25554;44.954;10.068;2022-09-09T16:12:36;8.07;;;3.17;;
39880;SDS011;25554;44.954;10.068;2022-09-09T16:15:04;5.03;;;3.08;;
39880;SDS011;25554;44.954;10.068;2022-09-09T16:17:32;7.03;;;3.75;;
39880;SDS011;25554;44.954;10.068;2022-09-09T16:20:03;5.95;;;4.28;;
39880;SDS011;25554;44.954;10.068;2022-09-09T16:22:32;10.43;;;5.15;;
39880;SDS011;25554;44.954;10.068;2022-09-09T16:24:59;8.35;;;4.13;;
39880;SDS011;25554;44.954;10.068;2022-09-09T16:27:25;4.63;;;2.90;;
39880;SDS011;25554;44.954;10.068;2022-09-09T16:29:51;5.78;;;4.05;;
39880;SDS011;25554;44.954;10.068;2022-09-09T16:32:22;7.35;;;3.70;;
39880;SDS011;25554;44.954;10.068;2022-09-09T16:34:48;7.05;;;4.00;;
39880;SDS011;25554;44.954;10.068;2022-09-09T16:37:14;5.20;;;3.60;;
39880;SDS011;25554;44.954;10.068;2022-09-09T16:42:07;7.15;;;4.00;;
39880;SDS011;25554;44.954;10.068;2022-09-09T16:44:34;6.45;;;3.70;;
39880;SDS011;25554;44.954;10.068;2022-09-09T16:49:27;9.20;;;3.75;;
39880;SDS011;25554;44.954;10.068;2022-09-09T16:51:57;9.85;;;3.80;;
39880;SDS011;25554;44.954;10.068;2022-09-09T16:54:25;3.97;;;3.05;;
39880;SDS011;25554;44.954;10.068;2022-09-09T16:56:52;6.97;;;3.63;;
39880;SDS011;25554;44.954;10.068;2022-09-09T16:59:20;5.82;;;2.92;;
39880;SDS011;25554;44.954;10.068;2022-09-09T17:01:48;6.55;;;3.50;;
39880;SDS011;25554;44.954;10.068;2022-09-09T17:04:17;6.85;;;2.85;;
39880;SDS011;25554;44.954;10.068;2022-09-09T17:06:50;5.68;;;3.60;;
39880;SDS011;25554;44.954;10.068;2022-09-09T17:09:19;5.25;;;2.85;;
39880;SDS011;25554;44.954;10.068;2022-09-09T17:11:47;6.20;;;3.88;;
39880;SDS011;25554;44.954;10.068;2022-09-09T17:14:16;8.05;;;4.30;;
39880;SDS011;25554;44.954;10.068;2022-09-09T17:16:44;7.53;;;4.10;;
39880;SDS011;25554;44.954;10.068;2022-09-09T17:19:11;6.18;;;3.60;;
39880;SDS011;25554;44.954;10.068;2022-09-09T17:21:38;4.60;;;3.55;;
39880;SDS011;25554;44.954;10.068;2022-09-09T17:24:05;7.13;;;4.47;;
39880;SDS011;25554;44.954;10.068;2022-09-09T17:26:33;6.63;;;3.72;;
39880;SDS011;25554;44.954;10.068;2022-09-09T17:29:00;7.20;;;3.38;;
39880;SDS011;25554;44.954;10.068;2022-09-09T17:31:28;7.72;;;4.07;;
39880;SDS011;25554;44.954;10.068;2022-09-09T17:33:55;5.13;;;3.70;;
39880;SDS011;25554;44.954;10.068;2022-09-09T17:36:24;7.55;;;4.45;;
39880;SDS011;25554;44.954;10.068;2022-09-09T17:38:53;12.18;;;4.50;;
39880;SDS011;25554;44.954;10.068;2022-09-09T17:41:24;7.85;;;4.10;;
39880;SDS011;25554;44.954;10.068;2022-09-09T17:43:58;4.53;;;3.83;;
39880;SDS011;25554;44.954;10.068;2022-09-09T17:46:34;5.53;;;3.30;;
39880;SDS011;25554;44.954;10.068;2022-09-09T17:49:03;5.57;;;3.38;;
39880;SDS011;25554;44.954;10.068;2022-09-09T17:51:33;4.63;;;3.47;;